createdAt,value
2018-05-06T00:00:48.963Z,29.30
2018-05-06T00:03:17.228Z,29.60
2018-05-06T00:05:45.470Z,29.50
2018-05-06T00:08:13.038Z,29.50
2018-05-06T00:10:40.535Z,29.50
2018-05-06T00:13:08.264Z,29.50
2018-05-06T00:15:35.760Z,29.80
2018-05-06T00:18:03.216Z,29.90
2018-05-06T00:20:30.801Z,29.80
2018-05-06T00:22:59.348Z,30.10
2018-05-06T00:25:27.021Z,30.10
2018-05-06T00:27:56.068Z,30.40
2018-05-06T00:30:23.622Z,30.30
2018-05-06T00:32:51.864Z,30.10
2018-05-06T00:35:19.380Z,30.10
2018-05-06T00:37:46.880Z,30.10
2018-05-06T00:40:14.341Z,30.30
2018-05-06T00:42:41.842Z,30.30
2018-05-06T00:45:09.313Z,30.00
2018-05-06T00:47:36.925Z,30.30
2018-05-06T00:50:04.379Z,30.50
2018-05-06T00:52:31.967Z,30.60
2018-05-06T00:54:59.655Z,30.70
2018-05-06T00:57:27.294Z,30.80
2018-05-06T00:59:55.285Z,31.00
2018-05-06T01:02:22.759Z,31.40
2018-05-06T01:04:50.371Z,31.70
2018-05-06T01:07:17.831Z,32.00
2018-05-06T01:09:45.317Z,32.20
2018-05-06T01:12:12.826Z,32.20
2018-05-06T01:14:41.490Z,32.00
2018-05-06T01:17:09.045Z,32.10
2018-05-06T01:19:37.032Z,32.20
2018-05-06T01:22:04.521Z,32.50
2018-05-06T01:24:32.797Z,32.90
2018-05-06T01:27:00.289Z,32.10
2018-05-06T01:29:29.196Z,31.80
2018-05-06T01:31:57.218Z,31.80
2018-05-06T01:34:24.642Z,32.00
2018-05-06T01:36:52.300Z,32.40
2018-05-06T01:39:20.481Z,32.50
2018-05-06T01:41:48.020Z,32.50
2018-05-06T01:44:16.323Z,32.60
2018-05-06T01:46:43.813Z,32.50
2018-05-06T01:49:11.283Z,31.90
2018-05-06T01:51:38.797Z,31.90
2018-05-06T01:54:06.318Z,30.80
2018-05-06T01:56:34.422Z,31.10
2018-05-06T01:59:02.658Z,31.40
2018-05-06T02:01:30.335Z,31.20
2018-05-06T02:03:57.817Z,31.00
2018-05-06T02:06:25.303Z,31.10
2018-05-06T02:08:52.776Z,31.00
2018-05-06T02:11:20.370Z,31.00
2018-05-06T02:13:47.844Z,30.30
2018-05-06T02:16:15.411Z,30.40
2018-05-06T02:18:42.952Z,29.90
2018-05-06T02:21:10.517Z,29.50
2018-05-06T02:23:38.147Z,29.60
2018-05-06T02:26:05.615Z,30.00
2018-05-06T02:28:33.163Z,29.50
2018-05-06T02:31:01.582Z,29.50
2018-05-06T02:33:29.137Z,29.40
2018-05-06T02:35:56.644Z,29.30
2018-05-06T02:38:24.235Z,29.50
2018-05-06T02:40:51.827Z,29.10
2018-05-06T02:43:20.109Z,30.00
2018-05-06T02:45:48.878Z,29.90
2018-05-06T02:48:17.168Z,29.20
2018-05-06T02:50:45.944Z,29.30
2018-05-06T02:53:13.509Z,29.20
2018-05-06T02:55:40.938Z,29.10
2018-05-06T02:58:08.400Z,28.90
2018-05-06T03:00:35.971Z,29.00
2018-05-06T03:03:03.479Z,28.50
2018-05-06T03:05:31.167Z,28.90
2018-05-06T03:07:58.660Z,29.00
2018-05-06T03:10:26.472Z,29.60
2018-05-06T03:12:54.006Z,29.50
2018-05-06T03:15:21.449Z,29.60
2018-05-06T03:17:48.913Z,29.80
2018-05-06T03:20:16.449Z,29.70
2018-05-06T03:22:43.908Z,29.60
2018-05-06T03:25:12.160Z,29.70
2018-05-06T03:27:41.285Z,30.40
2018-05-06T03:30:09.567Z,30.00
2018-05-06T03:32:37.121Z,29.80
2018-05-06T03:35:04.986Z,30.80
2018-05-06T03:37:32.515Z,30.30
2018-05-06T03:39:59.992Z,30.60
2018-05-06T03:42:27.715Z,31.60
2018-05-06T03:44:55.187Z,31.30
2018-05-06T03:47:22.746Z,31.50
2018-05-06T03:49:50.841Z,33.10
2018-05-06T03:52:18.388Z,34.00
2018-05-06T03:54:46.167Z,34.60
2018-05-06T03:57:13.865Z,35.60
2018-05-06T03:59:41.600Z,36.30
2018-05-06T04:02:09.040Z,37.40
2018-05-06T04:04:36.520Z,37.80
2018-05-06T04:07:05.054Z,37.60
2018-05-06T04:09:32.475Z,38.00
2018-05-06T04:12:00.066Z,37.20
2018-05-06T04:14:28.491Z,34.70
2018-05-06T04:16:55.970Z,35.40
2018-05-06T04:19:23.544Z,32.30
2018-05-06T04:21:51.043Z,31.30
2018-05-06T04:24:18.517Z,32.50
2018-05-06T04:26:47.800Z,31.70
2018-05-06T04:29:16.049Z,30.50
2018-05-06T04:31:43.547Z,30.40
2018-05-06T04:34:11.033Z,29.20
2018-05-06T04:36:39.286Z,27.70
2018-05-06T04:39:06.916Z,27.60
2018-05-06T04:41:35.100Z,27.30
2018-05-06T04:44:02.601Z,27.20
2018-05-06T04:46:30.261Z,26.50
2018-05-06T04:48:57.799Z,26.40
2018-05-06T04:51:25.276Z,26.30
2018-05-06T04:53:53.164Z,26.00
2018-05-06T04:56:20.594Z,25.60
2018-05-06T04:58:48.879Z,24.90
2018-05-06T05:01:16.355Z,25.00
2018-05-06T05:03:43.926Z,24.80
2018-05-06T05:06:11.417Z,24.60
2018-05-06T05:08:38.970Z,24.40
2018-05-06T05:11:06.473Z,23.20
2018-05-06T05:13:34.015Z,21.80
2018-05-06T05:16:01.526Z,21.50
2018-05-06T05:18:29.700Z,22.00
2018-05-06T05:20:57.236Z,20.90
2018-05-06T05:23:25.377Z,20.60
2018-05-06T05:25:52.956Z,21.20
2018-05-06T05:28:21.235Z,20.90
2018-05-06T05:30:49.579Z,20.20
2018-05-06T05:33:17.089Z,20.10
2018-05-06T05:35:44.619Z,20.40
2018-05-06T05:38:12.246Z,21.10
2018-05-06T05:40:39.826Z,21.70
2018-05-06T05:43:07.306Z,21.00
2018-05-06T05:45:35.067Z,21.20
2018-05-06T05:48:02.660Z,19.70
2018-05-06T05:50:30.219Z,19.20
2018-05-06T05:52:57.731Z,18.50
2018-05-06T05:55:25.525Z,18.90
2018-05-06T05:57:53.231Z,18.40
2018-05-06T06:00:21.386Z,19.20
2018-05-06T06:02:48.933Z,18.30
2018-05-06T06:05:16.562Z,17.80
2018-05-06T06:07:44.616Z,17.90
2018-05-06T06:10:12.083Z,17.70
2018-05-06T06:12:40.295Z,17.80
2018-05-06T06:15:07.854Z,17.80
2018-05-06T06:17:35.349Z,18.10
2018-05-06T06:20:02.881Z,17.30
2018-05-06T06:22:30.430Z,17.20
2018-05-06T06:24:58.022Z,16.60
2018-05-06T06:27:25.718Z,17.10
2018-05-06T06:29:53.218Z,15.60
2018-05-06T06:32:20.743Z,15.80
2018-05-06T06:34:48.331Z,16.10
2018-05-06T06:37:15.745Z,16.80
2018-05-06T06:39:43.428Z,16.80
2018-05-06T06:42:11.275Z,15.80
2018-05-06T06:44:38.840Z,16.00
2018-05-06T06:47:06.397Z,15.10
2018-05-06T06:49:33.987Z,15.30
2018-05-06T06:52:03.270Z,15.10
2018-05-06T06:54:31.536Z,14.40
2018-05-06T06:56:59.255Z,14.30
2018-05-06T06:59:26.796Z,15.40
2018-05-06T07:01:54.298Z,14.30
2018-05-06T07:04:21.875Z,15.10
2018-05-06T07:06:49.635Z,15.10
2018-05-06T07:09:17.143Z,13.70
2018-05-06T07:11:44.684Z,13.20
2018-05-06T07:14:12.205Z,13.60
2018-05-06T07:16:39.715Z,13.40
2018-05-06T07:19:07.232Z,12.80
2018-05-06T07:21:34.728Z,12.20
2018-05-06T07:24:03.320Z,13.00
2018-05-06T07:26:30.848Z,12.60
2018-05-06T07:28:58.607Z,12.10
2018-05-06T07:31:26.538Z,12.00
2018-05-06T07:33:54.832Z,10.80
2018-05-06T07:36:22.342Z,10.80
2018-05-06T07:38:49.865Z,11.00
2018-05-06T07:41:17.355Z,11.50
2018-05-06T07:43:44.921Z,10.10
2018-05-06T07:46:13.212Z,11.80
2018-05-06T07:48:40.758Z,11.20
2018-05-06T07:51:08.259Z,10.30
2018-05-06T07:53:35.795Z,10.20
2018-05-06T07:56:03.592Z,10.30
2018-05-06T07:58:31.406Z,10.20
2018-05-06T08:00:58.908Z,9.40
2018-05-06T08:03:26.418Z,10.00
2018-05-06T08:05:53.967Z,10.20
2018-05-06T08:08:21.531Z,8.70
2018-05-06T08:10:49.926Z,8.70
2018-05-06T08:13:17.314Z,8.70
2018-05-06T08:15:44.831Z,9.50
2018-05-06T08:18:12.447Z,9.00
2018-05-06T08:20:40.724Z,9.10
2018-05-06T08:23:08.845Z,9.00
2018-05-06T08:25:36.403Z,8.50
2018-05-06T08:28:04.219Z,8.50
2018-05-06T08:30:32.467Z,9.00
2018-05-06T08:32:59.993Z,8.90
2018-05-06T08:35:28.341Z,8.50
2018-05-06T08:37:55.803Z,8.50
2018-05-06T08:40:24.079Z,8.30
2018-05-06T08:42:51.672Z,8.20
2018-05-06T08:45:19.227Z,8.80
2018-05-06T08:47:46.749Z,7.80
2018-05-06T08:50:14.241Z,8.90
2018-05-06T08:52:42.682Z,8.80
2018-05-06T08:55:10.764Z,9.20
2018-05-06T08:57:38.325Z,9.60
2018-05-06T09:00:05.879Z,9.70
2018-05-06T09:02:33.715Z,9.30
2018-05-06T09:05:01.921Z,9.00
2018-05-06T09:07:29.419Z,9.00
2018-05-06T09:09:56.987Z,9.80
2018-05-06T09:12:24.692Z,9.40
2018-05-06T09:14:52.230Z,9.30
2018-05-06T09:17:20.596Z,9.80
2018-05-06T09:19:48.068Z,9.60
2018-05-06T09:22:15.492Z,9.20
2018-05-06T09:24:43.122Z,9.50
2018-05-06T09:27:10.760Z,9.30
2018-05-06T09:29:38.334Z,9.30
2018-05-06T09:32:06.713Z,9.00
2018-05-06T09:34:35.077Z,8.60
2018-05-06T09:37:02.586Z,8.50
2018-05-06T09:39:30.860Z,8.40
2018-05-06T09:41:58.373Z,8.40
2018-05-06T09:44:25.901Z,8.50
2018-05-06T09:46:54.128Z,8.00
2018-05-06T09:49:21.665Z,9.00
2018-05-06T09:51:49.198Z,9.00
2018-05-06T09:54:17.501Z,8.10
2018-05-06T09:56:45.007Z,8.50
2018-05-06T09:59:12.562Z,8.40
2018-05-06T10:01:40.207Z,9.50
2018-05-06T10:04:08.822Z,8.20
2018-05-06T10:06:36.267Z,8.20
2018-05-06T10:09:04.826Z,8.00
2018-05-06T10:11:32.316Z,9.40
2018-05-06T10:13:59.803Z,9.50
2018-05-06T10:16:27.480Z,10.00
2018-05-06T10:18:55.818Z,9.70
2018-05-06T10:21:23.315Z,9.80
2018-05-06T10:23:50.771Z,9.50
2018-05-06T10:26:20.820Z,10.40
2018-05-06T10:28:48.419Z,10.00
2018-05-06T10:31:16.097Z,8.70
2018-05-06T10:33:44.460Z,9.60
2018-05-06T10:36:12.739Z,9.30
2018-05-06T10:38:40.249Z,9.30
2018-05-06T10:41:07.755Z,8.60
2018-05-06T10:43:36.132Z,9.20
2018-05-06T10:46:03.669Z,9.30
2018-05-06T10:48:31.918Z,9.30
2018-05-06T10:50:59.398Z,9.30
2018-05-06T10:53:26.918Z,9.30
2018-05-06T10:55:54.407Z,9.90
2018-05-06T10:58:21.907Z,9.30
2018-05-06T11:00:49.500Z,8.70
2018-05-06T11:03:17.012Z,9.20
2018-05-06T11:05:44.576Z,10.10
2018-05-06T11:08:12.156Z,9.50
2018-05-06T11:10:40.470Z,10.00
2018-05-06T11:13:08.151Z,10.20
2018-05-06T11:15:35.626Z,9.70
2018-05-06T11:18:03.883Z,9.20
2018-05-06T11:20:31.371Z,9.30
2018-05-06T11:22:58.900Z,9.20
2018-05-06T11:25:26.391Z,9.60
2018-05-06T11:27:54.042Z,10.50
2018-05-06T11:30:21.864Z,10.20
2018-05-06T11:32:49.753Z,9.60
2018-05-06T11:35:18.787Z,9.40
2018-05-06T11:37:46.248Z,9.30
2018-05-06T11:40:13.764Z,9.50
2018-05-06T11:42:41.285Z,10.00
2018-05-06T11:45:09.889Z,9.80
2018-05-06T11:47:38.165Z,10.20
2018-05-06T11:50:05.702Z,10.00
2018-05-06T11:52:34.099Z,9.90
2018-05-06T11:55:01.938Z,9.80
2018-05-06T11:57:29.616Z,9.60
2018-05-06T11:59:57.948Z,9.60
2018-05-06T12:02:25.523Z,9.60
2018-05-06T12:04:53.004Z,10.50
2018-05-06T12:07:21.359Z,10.30
2018-05-06T12:09:49.048Z,10.30
2018-05-06T12:12:16.529Z,10.20
2018-05-06T12:14:44.903Z,10.30
2018-05-06T12:17:12.456Z,10.30
2018-05-06T12:19:40.360Z,9.70
2018-05-06T12:22:07.972Z,9.30
2018-05-06T12:24:36.483Z,8.60
2018-05-06T12:27:04.066Z,8.60
2018-05-06T12:29:32.401Z,8.60
2018-05-06T12:32:00.007Z,8.50
2018-05-06T12:34:27.469Z,9.50
2018-05-06T12:36:54.960Z,10.00
2018-05-06T12:39:22.711Z,10.50
2018-05-06T12:41:50.257Z,9.70
2018-05-06T12:44:17.732Z,9.80
2018-05-06T12:46:46.008Z,9.50
2018-05-06T12:49:14.340Z,9.70
2018-05-06T12:51:41.995Z,9.70
2018-05-06T12:54:09.501Z,9.50
2018-05-06T12:56:36.996Z,9.10
2018-05-06T12:59:04.476Z,9.70
2018-05-06T13:01:32.117Z,9.20
2018-05-06T13:04:00.366Z,9.60
2018-05-06T13:06:27.887Z,9.60
2018-05-06T13:08:56.269Z,8.80
2018-05-06T13:11:23.816Z,8.80
2018-05-06T13:13:51.244Z,8.00
2018-05-06T13:16:18.767Z,8.90
2018-05-06T13:18:46.284Z,9.10
2018-05-06T13:21:13.844Z,9.60
2018-05-06T13:23:41.308Z,9.80
2018-05-06T13:26:08.992Z,10.40
2018-05-06T13:28:36.475Z,11.30
2018-05-06T13:31:04.044Z,10.50
2018-05-06T13:33:31.577Z,10.70
2018-05-06T13:35:59.750Z,9.90
2018-05-06T13:38:27.263Z,10.10
2018-05-06T13:40:54.733Z,9.80
2018-05-06T13:43:22.235Z,10.10
2018-05-06T13:45:50.565Z,10.50
2018-05-06T13:48:18.133Z,10.50
2018-05-06T13:50:45.735Z,10.40
2018-05-06T13:53:13.352Z,10.50
2018-05-06T13:55:40.865Z,10.30
2018-05-06T13:58:09.079Z,10.70
2018-05-06T14:00:38.046Z,11.70
2018-05-06T14:03:05.636Z,11.70
2018-05-06T14:05:33.844Z,11.50
2018-05-06T14:08:01.489Z,11.50
2018-05-06T14:10:29.754Z,11.50
2018-05-06T14:12:57.248Z,11.50
2018-05-06T14:15:24.809Z,12.20
2018-05-06T14:17:52.390Z,11.60
2018-05-06T14:20:19.927Z,12.10
2018-05-06T14:22:47.373Z,12.60
2018-05-06T14:25:14.962Z,12.70
2018-05-06T14:27:42.603Z,12.30
2018-05-06T14:30:10.119Z,12.30
2018-05-06T14:32:39.079Z,12.30
2018-05-06T14:35:06.598Z,12.30
2018-05-06T14:37:34.179Z,11.70
2018-05-06T14:40:01.720Z,12.20
2018-05-06T14:42:29.243Z,12.10
2018-05-06T14:44:56.737Z,12.10
2018-05-06T14:47:24.322Z,12.40
2018-05-06T14:49:51.788Z,12.00
2018-05-06T14:52:22.609Z,12.40
2018-05-06T14:54:50.062Z,13.10
2018-05-06T14:57:17.584Z,12.60
2018-05-06T14:59:45.127Z,12.40
2018-05-06T15:02:12.645Z,12.30
2018-05-06T15:04:40.196Z,13.30
2018-05-06T15:07:07.749Z,12.60
2018-05-06T15:09:39.090Z,12.90
2018-05-06T15:12:06.567Z,12.90
2018-05-06T15:14:34.109Z,12.50
2018-05-06T15:17:02.371Z,13.20
2018-05-06T15:19:29.971Z,13.20
2018-05-06T15:21:57.563Z,12.70
2018-05-06T15:24:25.076Z,12.80
2018-05-06T15:26:53.415Z,12.60
2018-05-06T15:29:21.024Z,12.60
2018-05-06T15:31:48.581Z,12.90
2018-05-06T15:34:16.167Z,12.60
2018-05-06T15:36:43.741Z,13.10
2018-05-06T15:39:12.240Z,12.60
2018-05-06T15:41:39.780Z,12.60
2018-05-06T15:44:07.302Z,12.10
2018-05-06T15:46:34.766Z,12.10
2018-05-06T15:49:02.257Z,12.30
2018-05-06T15:51:30.536Z,12.30
2018-05-06T15:53:58.020Z,12.20
2018-05-06T15:56:26.280Z,12.20
2018-05-06T15:58:53.823Z,12.10
2018-05-06T16:01:22.066Z,12.20
2018-05-06T16:03:49.540Z,12.20
2018-05-06T16:06:17.016Z,12.10
2018-05-06T16:08:44.529Z,12.30
2018-05-06T16:11:12.299Z,12.30
2018-05-06T16:13:40.540Z,12.50
2018-05-06T16:16:09.106Z,12.50
2018-05-06T16:18:37.353Z,11.70
2018-05-06T16:21:05.585Z,12.00
2018-05-06T16:23:33.059Z,12.00
2018-05-06T16:26:01.053Z,11.60
2018-05-06T16:28:28.534Z,11.80
2018-05-06T16:30:57.157Z,11.60
2018-05-06T16:33:24.887Z,11.50
2018-05-06T16:35:53.088Z,11.70
2018-05-06T16:38:21.248Z,11.70
2018-05-06T16:40:49.649Z,11.60
2018-05-06T16:43:17.969Z,11.60
2018-05-06T16:45:45.524Z,11.50
2018-05-06T16:48:12.941Z,11.60
2018-05-06T16:50:41.283Z,12.10
2018-05-06T16:53:08.849Z,12.10
2018-05-06T16:55:36.398Z,12.20
2018-05-06T16:58:03.998Z,12.40
2018-05-06T17:00:31.540Z,12.20
2018-05-06T17:02:59.036Z,12.80
2018-05-06T17:05:27.365Z,12.80
2018-05-06T17:07:56.447Z,12.90
2018-05-06T17:10:24.722Z,12.70
2018-05-06T17:12:52.277Z,12.70
2018-05-06T17:15:19.889Z,12.70
2018-05-06T17:17:47.447Z,12.80
2018-05-06T17:20:14.999Z,13.20
2018-05-06T17:22:42.603Z,12.90
2018-05-06T17:25:10.413Z,13.50
2018-05-06T17:27:38.000Z,13.40
2018-05-06T17:30:05.722Z,13.50
2018-05-06T17:32:33.198Z,14.20
2018-05-06T17:35:00.723Z,14.00
2018-05-06T17:37:28.305Z,14.40
2018-05-06T17:39:55.880Z,14.60
2018-05-06T17:42:23.555Z,14.60
2018-05-06T17:44:51.178Z,14.70
2018-05-06T17:47:18.667Z,14.90
2018-05-06T17:49:46.945Z,14.80
2018-05-06T17:52:14.550Z,14.80
2018-05-06T17:54:42.025Z,15.10
2018-05-06T17:57:09.553Z,15.40
2018-05-06T17:59:37.092Z,15.30
2018-05-06T18:02:04.670Z,15.60
2018-05-06T18:04:33.031Z,16.20
2018-05-06T18:07:00.546Z,16.10
2018-05-06T18:09:28.096Z,15.90
2018-05-06T18:11:56.496Z,16.50
2018-05-06T18:14:25.177Z,16.90
2018-05-06T18:16:53.107Z,16.80
2018-05-06T18:19:20.632Z,17.70
2018-05-06T18:21:49.155Z,17.50
2018-05-06T18:24:17.299Z,17.50
2018-05-06T18:26:45.570Z,17.50
2018-05-06T18:29:13.342Z,17.50
2018-05-06T18:31:40.860Z,17.50
2018-05-06T18:34:09.610Z,17.80
2018-05-06T18:36:38.289Z,18.00
2018-05-06T18:39:06.758Z,18.20
2018-05-06T18:41:35.825Z,18.70
2018-05-06T18:44:03.377Z,18.70
2018-05-06T18:46:30.939Z,18.90
2018-05-06T18:48:58.447Z,19.10
2018-05-06T18:51:26.032Z,19.20
2018-05-06T18:53:53.662Z,19.60
2018-05-06T18:56:22.055Z,20.00
2018-05-06T18:58:50.329Z,20.20
2018-05-06T19:01:17.962Z,20.20
2018-05-06T19:03:46.369Z,20.30
2018-05-06T19:06:14.165Z,20.30
2018-05-06T19:08:41.671Z,20.60
2018-05-06T19:11:09.211Z,20.90
2018-05-06T19:13:36.770Z,21.00
2018-05-06T19:16:05.051Z,21.50
2018-05-06T19:18:32.611Z,21.50
2018-05-06T19:21:00.259Z,22.20
2018-05-06T19:23:27.853Z,22.60
2018-05-06T19:25:55.400Z,22.80
2018-05-06T19:28:22.923Z,23.10
2018-05-06T19:30:50.616Z,23.30
2018-05-06T19:33:18.971Z,24.30
2018-05-06T19:35:46.511Z,24.20
2018-05-06T19:38:14.010Z,24.60
2018-05-06T19:40:43.252Z,24.60
2018-05-06T19:43:11.654Z,24.70
2018-05-06T19:45:39.305Z,25.20
2018-05-06T19:48:07.863Z,24.70
2018-05-06T19:50:36.298Z,24.60
2018-05-06T19:53:04.689Z,24.60
2018-05-06T19:55:32.124Z,24.60
2018-05-06T19:57:59.852Z,24.80
2018-05-06T20:00:27.321Z,25.20
2018-05-06T20:02:56.363Z,25.50
2018-05-06T20:05:23.911Z,25.40
2018-05-06T20:07:51.882Z,25.60
2018-05-06T20:10:19.522Z,25.70
2018-05-06T20:12:47.857Z,26.50
2018-05-06T20:15:16.637Z,26.30
2018-05-06T20:17:44.223Z,26.20
2018-05-06T20:20:11.787Z,26.40
2018-05-06T20:22:40.130Z,26.90
2018-05-06T20:25:07.544Z,26.90
2018-05-06T20:27:35.269Z,27.20
2018-05-06T20:30:03.450Z,27.40
2018-05-06T20:32:31.323Z,27.60
2018-05-06T20:34:59.878Z,27.70
2018-05-06T20:37:28.131Z,28.20
2018-05-06T20:39:55.841Z,28.20
2018-05-06T20:42:24.267Z,28.60
2018-05-06T20:44:51.845Z,28.70
2018-05-06T20:47:19.380Z,28.90
2018-05-06T20:49:46.946Z,29.00
2018-05-06T20:52:15.159Z,29.30
2018-05-06T20:54:42.686Z,29.30
2018-05-06T20:57:10.182Z,29.40
2018-05-06T20:59:37.943Z,29.60
2018-05-06T21:02:05.522Z,29.80
2018-05-06T21:04:33.105Z,30.00
2018-05-06T21:07:00.827Z,30.00
2018-05-06T21:09:30.210Z,30.60
2018-05-06T21:11:57.966Z,30.50
2018-05-06T21:14:25.379Z,30.70
2018-05-06T21:16:52.879Z,30.90
2018-05-06T21:19:20.432Z,31.50
2018-05-06T21:21:47.966Z,31.80
2018-05-06T21:24:15.453Z,31.70
2018-05-06T21:26:42.966Z,31.70
2018-05-06T21:29:10.553Z,31.70
2018-05-06T21:31:39.002Z,31.70
2018-05-06T21:34:06.472Z,31.60
2018-05-06T21:36:34.490Z,32.20
2018-05-06T21:39:01.992Z,32.00
2018-05-06T21:41:30.233Z,33.10
2018-05-06T21:43:57.976Z,33.10
2018-05-06T21:46:25.856Z,33.20
2018-05-06T21:48:53.349Z,33.60
2018-05-06T21:51:20.902Z,33.70
2018-05-06T21:53:49.041Z,34.10
2018-05-06T21:56:18.044Z,34.90
2018-05-06T21:58:46.428Z,35.40
2018-05-06T22:01:14.724Z,36.20
2018-05-06T22:03:42.194Z,36.10
2018-05-06T22:06:09.745Z,36.60
2018-05-06T22:08:37.613Z,37.40
2018-05-06T22:11:05.070Z,37.80
2018-05-06T22:13:33.016Z,38.20
2018-05-06T22:16:00.556Z,38.80
2018-05-06T22:18:28.029Z,39.00
2018-05-06T22:20:59.609Z,40.70
2018-05-06T22:23:27.101Z,40.60
2018-05-06T22:25:54.708Z,40.80
2018-05-06T22:28:23.020Z,40.80
2018-05-06T22:30:50.705Z,40.70
2018-05-06T22:33:18.995Z,40.90
2018-05-06T22:35:46.478Z,40.90
2018-05-06T22:38:14.080Z,40.90
2018-05-06T22:40:41.628Z,41.50
2018-05-06T22:43:09.096Z,41.20
2018-05-06T22:45:36.628Z,41.80
2018-05-06T22:48:04.201Z,42.70
2018-05-06T22:50:31.670Z,43.10
2018-05-06T22:52:59.228Z,43.60
2018-05-06T22:55:26.941Z,43.90
2018-05-06T22:57:54.656Z,43.70
2018-05-06T23:00:22.113Z,43.80
2018-05-06T23:02:49.610Z,44.60
2018-05-06T23:05:17.934Z,45.80
2018-05-06T23:07:45.398Z,45.70
2018-05-06T23:10:12.860Z,46.00
2018-05-06T23:12:41.986Z,47.30
2018-05-06T23:15:09.606Z,47.20
2018-05-06T23:17:37.173Z,48.00
2018-05-06T23:20:05.865Z,47.60
2018-05-06T23:22:33.323Z,46.90
2018-05-06T23:25:00.933Z,46.90
2018-05-06T23:27:28.429Z,47.30
2018-05-06T23:29:55.936Z,47.40
2018-05-06T23:32:23.580Z,48.50
2018-05-06T23:34:51.052Z,50.40
2018-05-06T23:37:18.628Z,51.20
2018-05-06T23:39:46.231Z,52.60
2018-05-06T23:42:13.695Z,53.90
2018-05-06T23:44:41.243Z,54.30
2018-05-06T23:47:08.736Z,53.20
2018-05-06T23:49:37.055Z,52.80
2018-05-06T23:52:04.494Z,52.70
2018-05-06T23:54:32.823Z,53.70
2018-05-06T23:57:00.348Z,54.80
2018-05-06T23:59:27.903Z,55.30
